sensor_id;sensor_type;location;lat;lon;timestamp;pressure;altitude;pressure_sealevel;temperature;humidity
35507;BME280;36461;52.018;21.036;2023-01-01T00:01:47;100167.77;;;11.95;81.78
35507;BME280;36461;52.018;21.036;2023-01-01T00:04:14;100163.51;;;11.92;81.71
35507;BME280;36461;52.018;21.036;2023-01-01T00:06:41;100173.11;;;11.90;81.70
35507;BME280;36461;52.018;21.036;2023-01-01T00:09:09;100170.52;;;11.90;81.79
35507;BME280;36461;52.018;21.036;2023-01-01T00:11:54;100166.14;;;11.91;81.91
35507;BME280;36461;52.018;21.036;2023-01-01T00:14:20;100170.45;;;11.92;81.83
35507;BME280;36461;52.018;21.036;2023-01-01T00:16:47;100167.91;;;11.90;81.77
35507;BME280;36461;52.018;21.036;2023-01-01T00:19:14;100177.84;;;11.91;81.83
35507;BME280;36461;52.018;21.036;2023-01-01T00:21:40;100172.61;;;11.92;81.89
35507;BME280;36461;52.018;21.036;2023-01-01T00:24:07;100154.84;;;11.82;81.84
35507;BME280;36461;52.018;21.036;2023-01-01T00:26:34;100167.91;;;11.90;81.76
35507;BME280;36461;52.018;21.036;2023-01-01T00:29:00;100163.61;;;11.89;81.72
35507;BME280;36461;52.018;21.036;2023-01-01T00:31:27;100153.34;;;11.86;81.68
35507;BME280;36461;52.018;21.036;2023-01-01T00:33:54;100153.08;;;11.82;81.64
35507;BME280;36461;52.018;21.036;2023-01-01T00:36:23;100150.55;;;11.81;81.79
35507;BME280;36461;52.018;21.036;2023-01-01T00:38:51;100156.15;;;11.82;81.84
35507;BME280;36461;52.018;21.036;2023-01-01T00:41:19;100162.58;;;11.83;81.93
35507;BME280;36461;52.018;21.036;2023-01-01T00:43:46;100167.65;;;11.86;81.94
35507;BME280;36461;52.018;21.036;2023-01-01T00:46:13;100165.84;;;11.88;81.94
35507;BME280;36461;52.018;21.036;2023-01-01T00:48:41;100164.02;;;11.90;81.80
35507;BME280;36461;52.018;21.036;2023-01-01T00:51:08;100155.70;;;11.92;81.73
35507;BME280;36461;52.018;21.036;2023-01-01T00:53:34;100158.67;;;11.93;81.68
35507;BME280;36461;52.018;21.036;2023-01-01T00:56:01;100154.00;;;11.91;81.52
35507;BME280;36461;52.018;21.036;2023-01-01T00:58:29;100166.55;;;11.92;81.59
35507;BME280;36461;52.018;21.036;2023-01-01T01:00:55;100166.55;;;11.92;81.50
35507;BME280;36461;52.018;21.036;2023-01-01T01:03:22;100167.14;;;11.88;81.43
35507;BME280;36461;52.018;21.036;2023-01-01T01:08:37;100169.21;;;11.90;81.37
35507;BME280;36461;52.018;21.036;2023-01-01T01:11:07;100162.31;;;11.89;81.33
35507;BME280;36461;52.018;21.036;2023-01-01T01:13:35;100162.70;;;11.90;81.35
35507;BME280;36461;52.018;21.036;2023-01-01T01:16:15;100166.21;;;11.89;81.23
35507;BME280;36461;52.018;21.036;2023-01-01T01:18:43;100167.14;;;11.88;81.24
35507;BME280;36461;52.018;21.036;2023-01-01T01:21:16;100172.84;;;11.86;81.21
35507;BME280;36461;52.018;21.036;2023-01-01T01:23:44;100178.31;;;11.90;81.36
35507;BME280;36461;52.018;21.036;2023-01-01T01:26:13;100176.52;;;11.92;81.32
35507;BME280;36461;52.018;21.036;2023-01-01T01:28:42;100166.94;;;11.93;81.11
35507;BME280;36461;52.018;21.036;2023-01-01T01:31:09;100170.05;;;11.91;81.13
35507;BME280;36461;52.018;21.036;2023-01-01T01:33:37;100173.91;;;11.92;81.05
35507;BME280;36461;52.018;21.036;2023-01-01T01:36:04;100173.11;;;11.90;80.95
35507;BME280;36461;52.018;21.036;2023-01-01T01:38:31;100166.34;;;11.86;80.84
35507;BME280;36461;52.018;21.036;2023-01-01T01:40:58;100169.19;;;11.80;80.81
35507;BME280;36461;52.018;21.036;2023-01-01T01:46:03;100176.36;;;11.75;80.96
35507;BME280;36461;52.018;21.036;2023-01-01T01:48:45;100181.16;;;11.74;80.96
35507;BME280;36461;52.018;21.036;2023-01-01T01:51:19;100176.99;;;11.70;80.93
35507;BME280;36461;52.018;21.036;2023-01-01T01:53:50;100186.16;;;11.68;81.02
35507;BME280;36461;52.018;21.036;2023-01-01T01:56:26;100183.59;;;11.67;80.97
35507;BME280;36461;52.018;21.036;2023-01-01T01:58:54;100184.26;;;11.62;80.97
35507;BME280;36461;52.018;21.036;2023-01-01T02:01:23;100175.66;;;11.59;81.06
35507;BME280;36461;52.018;21.036;2023-01-01T02:04:00;100177.75;;;11.62;81.14
35507;BME280;36461;52.018;21.036;2023-01-01T02:06:29;100181.52;;;11.65;81.04
35507;BME280;36461;52.018;21.036;2023-01-01T02:08:58;100180.66;;;11.64;81.01
35507;BME280;36461;52.018;21.036;2023-01-01T02:11:40;100178.19;;;11.61;80.89
35507;BME280;36461;52.018;21.036;2023-01-01T02:14:07;100174.62;;;11.64;81.02
35507;BME280;36461;52.018;21.036;2023-01-01T02:16:54;100175.45;;;11.64;80.90
35507;BME280;36461;52.018;21.036;2023-01-01T02:25:17;100168.19;;;11.62;80.76
35507;BME280;36461;52.018;21.036;2023-01-01T02:31:00;100184.48;;;11.55;80.73
35507;BME280;36461;52.018;21.036;2023-01-01T02:33:28;100181.62;;;11.51;80.70
35507;BME280;36461;52.018;21.036;2023-01-01T02:35:58;100190.05;;;11.46;80.73
35507;BME280;36461;52.018;21.036;2023-01-01T02:38:33;100194.01;;;11.45;80.85
35507;BME280;36461;52.018;21.036;2023-01-01T02:41:10;100192.64;;;11.46;80.94
35507;BME280;36461;52.018;21.036;2023-01-01T02:43:47;100181.02;;;11.45;80.86
35507;BME280;36461;52.018;21.036;2023-01-01T02:46:13;100187.17;;;11.42;80.87
35507;BME280;36461;52.018;21.036;2023-01-01T02:48:48;100177.27;;;11.40;80.86
35507;BME280;36461;52.018;21.036;2023-01-01T02:51:34;100178.14;;;11.40;80.93
35507;BME280;36461;52.018;21.036;2023-01-01T02:54:32;100177.41;;;11.37;80.85
35507;BME280;36461;52.018;21.036;2023-01-01T02:57:17;100174.13;;;11.32;80.83
35507;BME280;36461;52.018;21.036;2023-01-01T03:03:15;100175.56;;;11.29;80.94
35507;BME280;36461;52.018;21.036;2023-01-01T03:11:23;100172.56;;;11.28;80.95
35507;BME280;36461;52.018;21.036;2023-01-01T03:16:48;100180.69;;;11.30;80.99
35507;BME280;36461;52.018;21.036;2023-01-01T03:19:22;100165.03;;;11.32;80.92
35507;BME280;36461;52.018;21.036;2023-01-01T03:21:54;100164.54;;;11.34;80.84
35507;BME280;36461;52.018;21.036;2023-01-01T03:24:30;100166.27;;;11.33;80.73
35507;BME280;36461;52.018;21.036;2023-01-01T03:27:31;100166.23;;;11.35;80.72
35507;BME280;36461;52.018;21.036;2023-01-01T03:30:02;100163.78;;;11.42;80.73
35507;BME280;36461;52.018;21.036;2023-01-01T03:32:44;100164.89;;;11.47;80.65
35507;BME280;36461;52.018;21.036;2023-01-01T03:35:35;100166.02;;;11.51;80.61
35507;BME280;36461;52.018;21.036;2023-01-01T03:38:21;100176.95;;;11.59;80.45
35507;BME280;36461;52.018;21.036;2023-01-01T03:41:00;100163.72;;;11.66;80.26
35507;BME280;36461;52.018;21.036;2023-01-01T03:43:55;100165.66;;;11.71;80.19
35507;BME280;36461;52.018;21.036;2023-01-01T03:46:26;100160.28;;;11.75;79.96
35507;BME280;36461;52.018;21.036;2023-01-01T03:48:55;100176.48;;;11.82;79.80
35507;BME280;36461;52.018;21.036;2023-01-01T03:54:24;100185.45;;;11.97;79.46
35507;BME280;36461;52.018;21.036;2023-01-01T03:59:52;100185.53;;;12.06;78.95
35507;BME280;36461;52.018;21.036;2023-01-01T04:02:33;100195.67;;;12.12;78.87
35507;BME280;36461;52.018;21.036;2023-01-01T04:05:08;100194.05;;;12.20;78.40
35507;BME280;36461;52.018;21.036;2023-01-01T04:07:36;100192.04;;;12.27;78.24
35507;BME280;36461;52.018;21.036;2023-01-01T04:10:04;100204.08;;;12.29;77.98
35507;BME280;36461;52.018;21.036;2023-01-01T04:12:34;100195.73;;;12.31;77.86
35507;BME280;36461;52.018;21.036;2023-01-01T04:15:00;100193.13;;;12.31;77.67
35507;BME280;36461;52.018;21.036;2023-01-01T04:17:27;100196.13;;;12.32;77.42
35507;BME280;36461;52.018;21.036;2023-01-01T04:19:53;100198.67;;;12.44;77.22
35507;BME280;36461;52.018;21.036;2023-01-01T04:22:19;100198.41;;;12.50;77.03
35507;BME280;36461;52.018;21.036;2023-01-01T04:24:48;100203.80;;;12.56;76.93
35507;BME280;36461;52.018;21.036;2023-01-01T04:27:14;100207.17;;;12.58;76.39
35507;BME280;36461;52.018;21.036;2023-01-01T04:29:40;100199.61;;;12.62;76.30
35507;BME280;36461;52.018;21.036;2023-01-01T04:32:06;100200.73;;;12.67;76.09
35507;BME280;36461;52.018;21.036;2023-01-01T04:34:33;100205.40;;;12.69;75.86
35507;BME280;36461;52.018;21.036;2023-01-01T04:36:59;100214.33;;;12.73;75.82
35507;BME280;36461;52.018;21.036;2023-01-01T04:39:26;100216.86;;;12.75;75.47
35507;BME280;36461;52.018;21.036;2023-01-01T04:41:52;100224.17;;;12.77;75.50
35507;BME280;36461;52.018;21.036;2023-01-01T04:44:19;100215.48;;;12.76;75.26
35507;BME280;36461;52.018;21.036;2023-01-01T04:46:45;100230.97;;;12.80;75.20
35507;BME280;36461;52.018;21.036;2023-01-01T04:49:11;100235.60;;;12.83;75.09
35507;BME280;36461;52.018;21.036;2023-01-01T04:51:38;100232.56;;;12.84;74.94
35507;BME280;36461;52.018;21.036;2023-01-01T04:54:04;100220.88;;;12.82;74.67
35507;BME280;36461;52.018;21.036;2023-01-01T04:56:32;100231.98;;;12.77;74.53
35507;BME280;36461;52.018;21.036;2023-01-01T04:58:59;100228.80;;;12.70;74.47
35507;BME280;36461;52.018;21.036;2023-01-01T05:01:27;100239.66;;;12.70;74.47
35507;BME280;36461;52.018;21.036;2023-01-01T05:03:55;100239.15;;;12.72;74.33
35507;BME280;36461;52.018;21.036;2023-01-01T05:06:22;100238.53;;;12.75;74.22
35507;BME280;36461;52.018;21.036;2023-01-01T05:08:52;100239.00;;;12.75;74.19
35507;BME280;36461;52.018;21.036;2023-01-01T05:11:25;100231.45;;;12.69;74.20
35507;BME280;36461;52.018;21.036;2023-01-01T05:13:55;100247.07;;;12.69;74.11
35507;BME280;36461;52.018;21.036;2023-01-01T05:16:27;100236.66;;;12.69;73.95
35507;BME280;36461;52.018;21.036;2023-01-01T05:18:55;100237.95;;;12.69;73.96
35507;BME280;36461;52.018;21.036;2023-01-01T05:21:28;100239.80;;;12.67;73.82
35507;BME280;36461;52.018;21.036;2023-01-01T05:24:02;100238.64;;;12.64;73.45
35507;BME280;36461;52.018;21.036;2023-01-01T05:26:29;100246.89;;;12.63;73.68
35507;BME280;36461;52.018;21.036;2023-01-01T05:28:58;100233.87;;;12.63;73.57
35507;BME280;36461;52.018;21.036;2023-01-01T05:31:31;100233.36;;;12.65;73.63
35507;BME280;36461;52.018;21.036;2023-01-01T05:34:00;100236.03;;;12.64;73.60
35507;BME280;36461;52.018;21.036;2023-01-01T05:36:29;100231.27;;;12.63;73.57
35507;BME280;36461;52.018;21.036;2023-01-01T05:38:57;100240.45;;;12.62;73.55
35507;BME280;36461;52.018;21.036;2023-01-01T05:41:25;100245.66;;;12.62;73.44
35507;BME280;36461;52.018;21.036;2023-01-01T05:43:52;100249.05;;;12.64;73.38
35507;BME280;36461;52.018;21.036;2023-01-01T05:46:22;100240.63;;;12.67;73.27
35507;BME280;36461;52.018;21.036;2023-01-01T05:48:51;100242.40;;;12.67;73.06
35507;BME280;36461;52.018;21.036;2023-01-01T05:51:21;100247.22;;;12.66;72.92
35507;BME280;36461;52.018;21.036;2023-01-01T05:53:51;100238.64;;;12.64;72.86
35507;BME280;36461;52.018;21.036;2023-01-01T05:56:18;100251.84;;;12.59;72.82
35507;BME280;36461;52.018;21.036;2023-01-01T05:58:45;100261.53;;;12.55;72.80
35507;BME280;36461;52.018;21.036;2023-01-01T06:01:18;100263.87;;;12.51;72.77
35507;BME280;36461;52.018;21.036;2023-01-01T06:03:47;100261.88;;;12.48;72.84
35507;BME280;36461;52.018;21.036;2023-01-01T06:06:19;100266.11;;;12.50;72.95
35507;BME280;36461;52.018;21.036;2023-01-01T06:08:54;100272.62;;;12.50;72.89
35507;BME280;36461;52.018;21.036;2023-01-01T06:11:19;100279.50;;;12.51;72.73
35507;BME280;36461;52.018;21.036;2023-01-01T06:13:50;100278.73;;;12.49;72.69
35507;BME280;36461;52.018;21.036;2023-01-01T06:16:19;100275.40;;;12.46;72.66
35507;BME280;36461;52.018;21.036;2023-01-01T06:18:46;100273.91;;;12.40;72.81
35507;BME280;36461;52.018;21.036;2023-01-01T06:21:18;100277.98;;;12.35;72.74
35507;BME280;36461;52.018;21.036;2023-01-01T06:23:47;100278.59;;;12.32;72.77
35507;BME280;36461;52.018;21.036;2023-01-01T06:26:20;100276.55;;;12.28;72.63
35507;BME280;36461;52.018;21.036;2023-01-01T06:28:48;100280.92;;;12.28;72.64
35507;BME280;36461;52.018;21.036;2023-01-01T06:31:18;100288.73;;;12.28;72.59
35507;BME280;36461;52.018;21.036;2023-01-01T06:33:46;100295.34;;;12.24;72.57
35507;BME280;36461;52.018;21.036;2023-01-01T06:36:15;100298.98;;;12.20;72.48
35507;BME280;36461;52.018;21.036;2023-01-01T06:38:46;100304.39;;;12.16;72.49
35507;BME280;36461;52.018;21.036;2023-01-01T06:41:17;100299.68;;;12.14;72.67
35507;BME280;36461;52.018;21.036;2023-01-01T06:43:45;100304.19;;;12.10;72.57
35507;BME280;36461;52.018;21.036;2023-01-01T06:46:27;100312.89;;;12.09;72.50
35507;BME280;36461;52.018;21.036;2023-01-01T06:48:58;100300.92;;;12.15;72.69
35507;BME280;36461;52.018;21.036;2023-01-01T06:51:33;100312.93;;;12.19;72.51
35507;BME280;36461;52.018;21.036;2023-01-01T06:54:04;100314.73;;;12.17;72.41
35507;BME280;36461;52.018;21.036;2023-01-01T06:56:32;100315.30;;;12.14;72.37
35507;BME280;36461;52.018;21.036;2023-01-01T06:58:59;100306.82;;;12.08;72.39
35507;BME280;36461;52.018;21.036;2023-01-01T07:01:28;100309.89;;;12.08;72.39
35507;BME280;36461;52.018;21.036;2023-01-01T07:03:59;100310.86;;;12.05;72.34
35507;BME280;36461;52.018;21.036;2023-01-01T07:06:29;100307.48;;;12.03;72.37
35507;BME280;36461;52.018;21.036;2023-01-01T07:08:56;100315.33;;;12.02;72.38
35507;BME280;36461;52.018;21.036;2023-01-01T07:11:23;100318.73;;;12.04;72.33
35507;BME280;36461;52.018;21.036;2023-01-01T07:13:50;100320.36;;;12.06;72.27
35507;BME280;36461;52.018;21.036;2023-01-01T07:16:17;100314.52;;;12.12;72.25
35507;BME280;36461;52.018;21.036;2023-01-01T07:18:43;100316.83;;;12.19;72.23
35507;BME280;36461;52.018;21.036;2023-01-01T07:21:29;100312.86;;;12.21;71.96
35507;BME280;36461;52.018;21.036;2023-01-01T07:24:00;100321.38;;;12.24;71.99
35507;BME280;36461;52.018;21.036;2023-01-01T07:26:30;100318.66;;;12.28;71.80
35507;BME280;36461;52.018;21.036;2023-01-01T07:28:58;100314.96;;;12.33;71.74
35507;BME280;36461;52.018;21.036;2023-01-01T07:31:25;100325.37;;;12.33;71.64
35507;BME280;36461;52.018;21.036;2023-01-01T07:33:52;100325.77;;;12.34;71.38
35507;BME280;36461;52.018;21.036;2023-01-01T07:36:18;100325.97;;;12.40;71.36
35507;BME280;36461;52.018;21.036;2023-01-01T07:38:45;100333.21;;;12.44;71.31
35507;BME280;36461;52.018;21.036;2023-01-01T07:41:12;100336.25;;;12.43;71.18
35507;BME280;36461;52.018;21.036;2023-01-01T07:43:39;100344.39;;;12.46;71.03
35507;BME280;36461;52.018;21.036;2023-01-01T07:46:05;100346.03;;;12.48;70.91
35507;BME280;36461;52.018;21.036;2023-01-01T07:48:31;100349.30;;;12.53;70.78
35507;BME280;36461;52.018;21.036;2023-01-01T07:50:58;100350.98;;;12.65;70.44
35507;BME280;36461;52.018;21.036;2023-01-01T07:53:24;100354.98;;;12.73;70.19
35507;BME280;36461;52.018;21.036;2023-01-01T07:55:50;100359.73;;;12.84;70.14
35507;BME280;36461;52.018;21.036;2023-01-01T07:58:17;100360.00;;;12.88;69.88
35507;BME280;36461;52.018;21.036;2023-01-01T08:00:46;100371.25;;;12.89;69.80
35507;BME280;36461;52.018;21.036;2023-01-01T08:03:14;100372.38;;;12.93;69.41
35507;BME280;36461;52.018;21.036;2023-01-01T08:05:41;100367.36;;;12.99;69.00
35507;BME280;36461;52.018;21.036;2023-01-01T08:08:09;100371.39;;;13.06;69.02
35507;BME280;36461;52.018;21.036;2023-01-01T08:10:36;100375.51;;;13.12;68.89
35507;BME280;36461;52.018;21.036;2023-01-01T08:13:05;100367.02;;;13.17;68.79
35507;BME280;36461;52.018;21.036;2023-01-01T08:15:33;100374.47;;;13.16;68.48
35507;BME280;36461;52.018;21.036;2023-01-01T08:18:02;100371.72;;;13.19;68.30
35507;BME280;36461;52.018;21.036;2023-01-01T08:20:30;100382.80;;;13.24;68.18
35507;BME280;36461;52.018;21.036;2023-01-01T08:23:00;100369.69;;;13.26;68.17
35507;BME280;36461;52.018;21.036;2023-01-01T08:25:26;100389.42;;;13.32;67.97
35507;BME280;36461;52.018;21.036;2023-01-01T08:27:53;100378.77;;;13.38;67.86
35507;BME280;36461;52.018;21.036;2023-01-01T08:30:19;100375.58;;;13.41;67.48
35507;BME280;36461;52.018;21.036;2023-01-01T08:32:47;100379.34;;;13.45;67.64
35507;BME280;36461;52.018;21.036;2023-01-01T08:35:13;100386.63;;;13.47;67.48
35507;BME280;36461;52.018;21.036;2023-01-01T08:37:40;100379.52;;;13.50;67.07
35507;BME280;36461;52.018;21.036;2023-01-01T08:40:09;100387.41;;;13.59;67.16
35507;BME280;36461;52.018;21.036;2023-01-01T08:42:38;100388.81;;;13.66;67.13
35507;BME280;36461;52.018;21.036;2023-01-01T08:45:06;100386.61;;;13.67;66.60
35507;BME280;36461;52.018;21.036;2023-01-01T08:47:33;100405.68;;;13.78;66.58
35507;BME280;36461;52.018;21.036;2023-01-01T08:50:00;100405.68;;;13.78;66.58
35507;BME280;36461;52.018;21.036;2023-01-01T08:52:26;100403.49;;;13.88;66.50
35507;BME280;36461;52.018;21.036;2023-01-01T08:54:53;100409.20;;;13.96;66.26
35507;BME280;36461;52.018;21.036;2023-01-01T08:57:19;100405.45;;;14.02;66.16
35507;BME280;36461;52.018;21.036;2023-01-01T08:59:45;100412.50;;;14.10;65.83
35507;BME280;36461;52.018;21.036;2023-01-01T09:02:12;100414.56;;;14.12;65.72
35507;BME280;36461;52.018;21.036;2023-01-01T09:04:38;100409.82;;;14.20;65.17
35507;BME280;36461;52.018;21.036;2023-01-01T09:07:05;100412.00;;;14.30;65.19
35507;BME280;36461;52.018;21.036;2023-01-01T09:09:31;100417.94;;;14.42;64.80
35507;BME280;36461;52.018;21.036;2023-01-01T09:11:58;100422.81;;;14.50;64.45
35507;BME280;36461;52.018;21.036;2023-01-01T09:14:28;100417.14;;;14.59;64.20
35507;BME280;36461;52.018;21.036;2023-01-01T09:16:55;100418.11;;;14.67;63.97
35507;BME280;36461;52.018;21.036;2023-01-01T09:19:22;100423.33;;;14.75;63.74
35507;BME280;36461;52.018;21.036;2023-01-01T09:21:48;100426.88;;;14.83;63.68
35507;BME280;36461;52.018;21.036;2023-01-01T09:24:14;100416.45;;;14.92;63.26
35507;BME280;36461;52.018;21.036;2023-01-01T09:26:41;100411.91;;;15.04;62.73
35507;BME280;36461;52.018;21.036;2023-01-01T09:29:07;100422.34;;;15.13;62.91
35507;BME280;36461;52.018;21.036;2023-01-01T09:31:33;100425.13;;;15.19;62.34
35507;BME280;36461;52.018;21.036;2023-01-01T09:34:00;100419.13;;;15.25;62.11
35507;BME280;36461;52.018;21.036;2023-01-01T09:36:27;100420.02;;;15.33;62.08
35507;BME280;36461;52.018;21.036;2023-01-01T09:38:56;100425.11;;;15.36;61.39
35507;BME280;36461;52.018;21.036;2023-01-01T09:44:39;100439.16;;;15.51;60.94
35507;BME280;36461;52.018;21.036;2023-01-01T09:50:09;100434.28;;;15.61;60.17
35507;BME280;36461;52.018;21.036;2023-01-01T09:52:59;100434.72;;;15.69;60.35
35507;BME280;36461;52.018;21.036;2023-01-01T09:58:11;100425.80;;;15.82;59.84
35507;BME280;36461;52.018;21.036;2023-01-01T10:00:44;100421.22;;;15.86;60.04
35507;BME280;36461;52.018;21.036;2023-01-01T10:06:24;100430.11;;;15.99;59.23
35507;BME280;36461;52.018;21.036;2023-01-01T10:14:29;100433.95;;;16.33;58.07
35507;BME280;36461;52.018;21.036;2023-01-01T10:17:00;100418.50;;;16.44;57.74
35507;BME280;36461;52.018;21.036;2023-01-01T10:19:37;100424.15;;;16.52;58.01
35507;BME280;36461;52.018;21.036;2023-01-01T10:22:10;100420.03;;;16.55;57.93
35507;BME280;36461;52.018;21.036;2023-01-01T10:27:35;100410.25;;;16.66;57.29
35507;BME280;36461;52.018;21.036;2023-01-01T10:30:14;100413.55;;;16.70;57.40
35507;BME280;36461;52.018;21.036;2023-01-01T10:32:51;100422.09;;;16.73;56.13
35507;BME280;36461;52.018;21.036;2023-01-01T10:35:19;100422.19;;;16.72;57.49
35507;BME280;36461;52.018;21.036;2023-01-01T10:37:48;100412.96;;;16.65;57.08
35507;BME280;36461;52.018;21.036;2023-01-01T10:40:19;100408.53;;;16.58;57.08
35507;BME280;36461;52.018;21.036;2023-01-01T10:42:50;100404.11;;;16.51;56.89
35507;BME280;36461;52.018;21.036;2023-01-01T10:45:39;100406.23;;;16.44;56.96
35507;BME280;36461;52.018;21.036;2023-01-01T10:48:19;100405.34;;;16.37;56.75
35507;BME280;36461;52.018;21.036;2023-01-01T10:51:01;100396.45;;;16.32;56.50
35507;BME280;36461;52.018;21.036;2023-01-01T10:53:38;100400.09;;;16.30;56.52
35507;BME280;36461;52.018;21.036;2023-01-01T10:56:21;100400.27;;;16.26;56.95
35507;BME280;36461;52.018;21.036;2023-01-01T10:58:51;100401.91;;;16.20;57.01
35507;BME280;36461;52.018;21.036;2023-01-01T11:01:25;100396.94;;;16.16;56.78
35507;BME280;36461;52.018;21.036;2023-01-01T11:06:46;100391.61;;;16.17;56.89
35507;BME280;36461;52.018;21.036;2023-01-01T11:09:28;100385.24;;;16.14;56.89
35507;BME280;36461;52.018;21.036;2023-01-01T11:11:58;100389.08;;;16.16;56.96
35507;BME280;36461;52.018;21.036;2023-01-01T11:14:34;100384.67;;;16.16;56.91
35507;BME280;36461;52.018;21.036;2023-01-01T11:17:02;100383.48;;;16.22;56.42
35507;BME280;36461;52.018;21.036;2023-01-01T11:19:33;100390.23;;;16.26;56.69
35507;BME280;36461;52.018;21.036;2023-01-01T11:22:03;100386.39;;;16.24;56.41
35507;BME280;36461;52.018;21.036;2023-01-01T11:24:32;100385.09;;;16.24;56.43
35507;BME280;36461;52.018;21.036;2023-01-01T11:27:20;100391.19;;;16.25;56.72
35507;BME280;36461;52.018;21.036;2023-01-01T11:29:48;100389.67;;;16.21;56.46
35507;BME280;36461;52.018;21.036;2023-01-01T11:32:30;100384.49;;;16.19;56.24
35507;BME280;36461;52.018;21.036;2023-01-01T11:34:57;100381.73;;;16.22;56.27
35507;BME280;36461;52.018;21.036;2023-01-01T11:37:33;100382.27;;;16.20;56.34
35507;BME280;36461;52.018;21.036;2023-01-01T11:40:04;100385.51;;;16.17;56.50
35507;BME280;36461;52.018;21.036;2023-01-01T11:42:35;100387.47;;;16.13;56.46
35507;BME280;36461;52.018;21.036;2023-01-01T11:45:21;100379.14;;;16.14;56.41
35507;BME280;36461;52.018;21.036;2023-01-01T11:47:56;100385.98;;;16.16;56.39
35507;BME280;36461;52.018;21.036;2023-01-01T11:53:17;100394.23;;;16.17;56.46
35507;BME280;36461;52.018;21.036;2023-01-01T11:56:06;100384.20;;;16.17;56.18
35507;BME280;36461;52.018;21.036;2023-01-01T12:06:52;100392.70;;;15.97;56.26
35507;BME280;36461;52.018;21.036;2023-01-01T12:12:41;100370.95;;;15.88;56.49
35507;BME280;36461;52.018;21.036;2023-01-01T12:15:30;100376.81;;;15.84;56.55
35507;BME280;36461;52.018;21.036;2023-01-01T12:18:22;100377.48;;;15.79;56.45
35507;BME280;36461;52.018;21.036;2023-01-01T12:20:59;100378.14;;;15.75;56.50
35507;BME280;36461;52.018;21.036;2023-01-01T12:23:28;100380.06;;;15.72;56.54
35507;BME280;36461;52.018;21.036;2023-01-01T12:31:20;100378.55;;;15.68;56.69
35507;BME280;36461;52.018;21.036;2023-01-01T12:39:53;100378.28;;;15.72;56.76
35507;BME280;36461;52.018;21.036;2023-01-01T12:57:02;100404.72;;;15.92;56.16
35507;BME280;36461;52.018;21.036;2023-01-01T12:59:32;100397.86;;;15.99;56.22
35507;BME280;36461;52.018;21.036;2023-01-01T13:02:02;100402.47;;;16.02;56.29
35507;BME280;36461;52.018;21.036;2023-01-01T13:04:39;100409.76;;;16.04;56.38
35507;BME280;36461;52.018;21.036;2023-01-01T13:07:10;100417.61;;;16.04;56.11
35507;BME280;36461;52.018;21.036;2023-01-01T13:09:42;100423.63;;;16.06;56.16
35507;BME280;36461;52.018;21.036;2023-01-01T13:12:13;100420.63;;;16.05;56.18
35507;BME280;36461;52.018;21.036;2023-01-01T13:14:42;100434.25;;;16.03;56.22
35507;BME280;36461;52.018;21.036;2023-01-01T13:17:21;100434.03;;;15.99;55.83
35507;BME280;36461;52.018;21.036;2023-01-01T13:19:58;100435.43;;;15.98;55.83
35507;BME280;36461;52.018;21.036;2023-01-01T13:38:50;100425.64;;;15.76;56.42
35507;BME280;36461;52.018;21.036;2023-01-01T13:41:40;100419.16;;;15.75;56.38
35507;BME280;36461;52.018;21.036;2023-01-01T13:44:19;100411.95;;;15.71;56.31
35507;BME280;36461;52.018;21.036;2023-01-01T13:47:08;100413.48;;;15.67;56.66
35507;BME280;36461;52.018;21.036;2023-01-01T14:03:50;100432.67;;;15.16;57.25
35507;BME280;36461;52.018;21.036;2023-01-01T14:11:38;100458.27;;;14.92;57.55
35507;BME280;36461;52.018;21.036;2023-01-01T14:14:23;100454.79;;;14.91;57.70
35507;BME280;36461;52.018;21.036;2023-01-01T14:16:58;100456.94;;;14.83;57.65
35507;BME280;36461;52.018;21.036;2023-01-01T14:19:28;100456.86;;;14.76;57.96
35507;BME280;36461;52.018;21.036;2023-01-01T14:21:55;100464.98;;;14.70;58.16
35507;BME280;36461;52.018;21.036;2023-01-01T14:24:23;100476.71;;;14.61;58.33
35507;BME280;36461;52.018;21.036;2023-01-01T14:26:51;100488.03;;;14.51;58.40
35507;BME280;36461;52.018;21.036;2023-01-01T14:29:25;100495.23;;;14.46;58.50
35507;BME280;36461;52.018;21.036;2023-01-01T14:31:59;100500.61;;;14.43;58.64
35507;BME280;36461;52.018;21.036;2023-01-01T14:34:30;100499.45;;;14.40;58.69
35507;BME280;36461;52.018;21.036;2023-01-01T14:37:00;100508.74;;;14.37;58.86
35507;BME280;36461;52.018;21.036;2023-01-01T14:39:30;100509.53;;;14.29;58.93
35507;BME280;36461;52.018;21.036;2023-01-01T14:42:06;100509.36;;;14.23;59.03
35507;BME280;36461;52.018;21.036;2023-01-01T14:44:44;100527.97;;;14.15;59.33
35507;BME280;36461;52.018;21.036;2023-01-01T14:47:24;100526.16;;;14.07;59.50
35507;BME280;36461;52.018;21.036;2023-01-01T14:49:54;100533.42;;;14.00;59.66
35507;BME280;36461;52.018;21.036;2023-01-01T14:52:34;100535.45;;;13.93;59.84
35507;BME280;36461;52.018;21.036;2023-01-01T14:55:01;100539.19;;;13.88;60.12
35507;BME280;36461;52.018;21.036;2023-01-01T14:57:34;100526.39;;;13.82;60.27
35507;BME280;36461;52.018;21.036;2023-01-01T15:00:13;100525.70;;;13.78;60.47
35507;BME280;36461;52.018;21.036;2023-01-01T15:02:37;100547.62;;;13.74;60.62
35507;BME280;36461;52.018;21.036;2023-01-01T15:05:31;100549.83;;;13.73;60.75
35507;BME280;36461;52.018;21.036;2023-01-01T15:07:57;100552.62;;;13.68;60.82
35507;BME280;36461;52.018;21.036;2023-01-01T15:10:28;100572.25;;;13.67;60.91
35507;BME280;36461;52.018;21.036;2023-01-01T15:12:56;100571.92;;;13.64;61.04